Moose Lake, Canada
Current Conditions -  °F | °C
As of 2:00 AM on Friday 24 Oct 2014 (Local Time) from CYQD Reporting Station
Moderate Fog Moderate Fog  
Wind Chill: 39°   Ceiling: 300
Heat Index: 45°   Visibility: 0.37mi
Dew Point: 45°   Wind: 10mph
Humidity: 100%   Direction: 140°SE
Pressure: 29.51"   Gusts: NA
Location:  53.7°N, 100.3°W
Report Text: CYQD 240700Z 14009KT 3/8SM FG VV003 07/07 A2951 RMK FG8 SLP004
Loading
Personal Weather Stations






























Interactive Weather Map
Tropical Storm Tracking
New forecast layout! Learn more

10-Day Weather Forecast

Advertisements
Track Severe Weather on mobile